Port Charlotte, Florida
Current Conditions -  °F | °C
As of 1:53 PM on Thursday 30 Oct 2014 (Local Time) from KPGD Reporting Station
Overcast Overcast  
Wind Chill: 87°   Ceiling: 5000
Heat Index: 88°   Visibility: 10mi
Dew Point: 64°   Wind: 7mph
Humidity: 46%   Direction: NA
Pressure: 29.93"   Gusts: NA
Location:  26.98°N, 82.1°W
Report Text: KPGD 301753Z VRB06KT 10SM OVC050 31/18 A2993 RMK AO2 SLP135 T03060178 10311 20183 58024
Loading
Personal Weather Stations






























Interactive Weather Map New forecast layout! Learn more

10-Day Weather Forecast

Advertisements
Track Severe Weather on mobile